Date,TemperatureHighF,TemperatureAvgF,TemperatureLowF,DewpointHighF,DewpointAvgF,DewpointLowF,HumidityHigh,HumidityAvg,HumidityLow,PressureMaxIn,PressureMinIn,WindSpeedMaxMPH,WindSpeedAvgMPH,GustSpeedMaxMPH,PrecipitationSumIn
2014-1-1,17.6,13.6,9.4,12.8,8.7,5.0,91,81,64,30.41,30.26,7,2,13,0.00
2014-1-2,13.5,6.7,-0.5,11.1,4.1,-3.2,90,89,87,30.33,29.88,8,3,13,0.00
2014-1-3,1.8,-2.3,-7.2,-0.7,-6.0,-10.8,89,84,72,30.52,29.89,0,0,12,0.00
2014-1-4,26.6,12.0,-11.0,7.4,-0.3,-14.3,88,60,37,30.52,30.27,7,2,15,0.00
2014-1-5,48.2,31.4,9.2,45.9,22.8,5.4,93,72,43,30.32,29.69,9,3,25,0.43
2014-1-6,51.5,32.8,2.6,49.5,29.2,-4.1,95,87,72,29.69,29.33,10,6,30,0.60
2014-1-7,2.5,-2.6,-6.7,-4.2,-11.2,-14.8,79,66,55,30.37,29.68,9,6,22,0.00
2014-1-8,12.7,5.2,-2.9,3.8,-17.6,-99.9,80,60,62,30.59,30.37,8,-165,19,0.00
2014-1-9,23.5,14.2,8.7,12.4,8.4,3.8,90,78,61,30.73,30.54,4,2,19,0.00
2014-1-10,39.4,29.8,18.7,38.1,26.1,9.5,97,86,60,30.60,30.22,6,2,19,0.02
2014-1-11,56.8,50.5,39.4,53.9,47.8,36.9,96,91,76,30.22,29.28,9,5,23,0.64
2014-1-12,39.7,31.8,28.4,36.8,27.7,23.8,93,85,79,30.06,29.38,9,5,19,0.04
2014-1-13,47.6,38.5,26.2,35.6,27.8,22.9,88,67,42,30.11,29.83,6,3,19,0.00
2014-1-14,44.4,38.9,30.1,40.0,36.7,29.1,98,92,70,29.85,29.70,5,2,19,0.38
2014-1-15,43.4,33.6,26.9,37.2,31.0,25.3,98,90,74,29.97,29.84,6,1,19,0.01
2014-1-16,28.6,24.3,21.1,25.2,21.0,17.9,94,87,76,30.00,29.91,3,1,19,0.00
2014-1-17,34.9,25.3,16.3,25.0,20.6,14.6,95,83,64,29.98,29.94,6,1,19,0.03
2014-1-18,27.3,21.7,18.0,25.3,19.6,15.8,95,91,87,29.94,29.75,5,2,19,0.00
2014-1-19,26.6,20.8,14.8,20.6,16.1,12.6,92,82,70,29.87,29.59,7,4,19,0.00
2014-1-20,30.2,22.7,9.3,27.0,18.9,5.7,93,85,78,29.96,29.58,7,4,19,0.00
2014-1-21,9.2,3.7,-6.7,5.9,-12.0,-99.9,87,67,60,30.09,29.96,4,-98,19,0.00
2014-1-22,5.0,-3.6,-15.1,-7.1,-26.6,-99.9,86,61,54,30.14,29.96,5,-175,19,0.00
2014-1-23,8.4,1.7,-7.4,3.1,-16.9,-99.9,87,69,68,30.33,30.14,5,-144,19,0.00
2014-1-24,11.5,4.4,-3.3,-0.9,-19.2,-99.9,85,57,50,30.41,29.97,6,-161,19,0.00
2014-1-25,19.2,14.4,9.8,13.3,7.0,-3.4,91,73,46,29.97,29.42,7,4,19,0.00
2014-1-26,20.3,8.9,0.9,13.5,1.2,-5.1,87,71,51,29.86,29.52,9,4,19,0.00
2014-1-27,36.4,19.8,2.7,29.7,10.1,-8.1,93,66,40,30.09,29.55,10,6,21,0.00
2014-1-28,8.6,2.7,-4.1,-6.6,-9.3,-12.3,76,57,42,30.39,30.09,5,2,19,0.00
2014-1-29,13.8,5.3,-6.4,-5.1,-7.9,-11.7,79,55,35,30.36,30.12,8,2,19,0.00
2014-1-30,29.2,13.0,-3.7,4.7,-1.0,-8.1,84,56,31,30.49,30.10,6,1,19,0.00
2014-1-31,30.8,24.7,19.4,20.6,8.9,-4.7,68,51,29,30.17,30.06,5,3,19,0.00
2014-2-1,39.6,35.5,19.3,27.8,23.7,16.1,88,63,50,30.32,29.98,6,3,16,0.00
2014-2-2,38.9,34.3,24.7,32.8,28.6,22.3,95,80,65,30.15,29.90,6,3,16,0.00
2014-2-3,24.7,20.2,11.9,22.4,16.9,8.7,92,87,79,30.36,30.14,4,1,16,0.00
2014-2-4,26.2,18.4,9.9,16.4,12.0,7.2,91,77,59,30.52,30.35,3,1,7,0.00
2014-2-5,23.4,19.8,15.3,21.7,17.9,12.9,94,92,91,30.19,29.66,8,2,14,0.00
2014-2-6,21.0,11.0,3.3,12.8,4.0,-99.9,91,77,50,30.34,30.06,5,-10,8,0.00
2014-2-7,23.2,13.6,4.6,8.7,5.0,0.9,90,70,45,30.32,30.23,6,2,12,0.00
2014-2-8,20.1,11.8,1.9,2.2,-0.9,-5.0,74,57,36,30.35,30.21,4,1,11,0.00
2014-2-9,23.4,13.7,-0.7,16.0,8.0,-3.7,92,79,52,30.24,29.99,3,1,10,0.00
2014-2-10,17.3,12.2,6.0,12.9,7.5,1.9,89,81,68,30.30,30.01,6,2,10,0.00
2014-2-11,14.2,6.9,0.3,5.4,2.0,-2.6,90,80,64,30.56,30.29,6,2,14,0.00
2014-2-12,27.7,9.2,-8.3,4.7,-2.6,-11.8,89,63,33,30.62,30.36,5,1,10,0.00
2014-2-13,25.5,21.1,15.0,24.5,18.2,-1.6,96,89,47,30.37,29.24,8,3,14,0.00
2014-2-14,26.4,22.4,17.1,24.8,20.7,15.7,96,93,85,29.60,29.16,9,4,21,0.00
2014-2-15,27.7,21.5,16.3,23.2,18.3,14.1,92,87,82,29.81,29.73,7,4,21,0.04
2014-2-16,17.5,12.4,8.1,14.1,8.4,5.2,91,84,68,30.17,29.80,8,4,19,0.00
2014-2-17,23.6,10.1,-2.5,6.6,-0.5,-6.8,91,64,35,30.48,30.16,4,1,13,0.00
2014-2-18,31.5,23.3,14.4,27.1,15.2,-2.7,94,73,33,30.31,29.96,7,3,18,0.00
2014-2-19,41.4,32.0,18.3,35.3,26.8,15.7,94,82,50,30.08,29.69,8,2,17,0.29
2014-2-20,43.9,33.9,21.7,33.6,27.9,19.9,96,81,38,30.21,29.97,5,1,10,0.18
2014-2-21,51.1,39.8,31.3,49.2,37.9,24.8,98,93,67,29.98,29.59,7,2,21,0.33
2014-2-22,45.2,38.7,30.9,24.8,20.2,16.3,66,48,35,29.97,29.83,10,5,21,0.00
2014-2-23,42.4,36.8,28.5,27.9,22.7,13.7,74,57,38,29.98,29.82,5,3,18,0.00
2014-2-24,28.4,18.5,12.1,15.2,10.3,4.9,87,70,53,30.05,29.82,9,5,18,0.00
2014-2-25,20.4,12.2,3.6,11.3,5.8,0.3,87,75,56,30.05,29.97,7,3,15,0.00
2014-2-26,14.0,6.5,-4.0,6.9,-13.6,-99.9,89,58,40,29.97,29.86,10,-111,21,0.00
2014-2-27,19.9,7.4,-3.2,9.8,-0.6,-9.8,87,70,51,30.06,29.64,10,4,21,0.00
2014-2-28,16.6,3.4,-4.8,-3.5,-6.3,-9.2,85,65,39,30.47,30.06,7,2,20,0.00
2014-3-1,34.9,21.5,-0.8,15.9,4.1,-8.2,75,48,31,30.45,30.11,5,2,15,0.00
2014-3-2,30.3,21.1,9.1,20.9,13.5,3.6,89,73,56,30.16,30.04,5,3,10,0.00
2014-3-3,14.5,5.7,-1.8,3.5,-2.9,-8.1,84,68,43,30.42,30.10,7,3,16,0.00
2014-3-4,23.2,10.7,-1.4,12.7,3.7,-4.3,88,75,43,30.45,30.28,4,1,11,0.00
2014-3-5,25.2,16.5,7.7,13.3,10.0,3.6,87,76,57,30.56,30.26,4,1,10,0.00
2014-3-6,27.9,11.8,-2.5,3.6,-2.7,-8.7,83,55,26,30.69,30.49,4,1,8,0.00
2014-3-7,42.4,24.5,7.7,25.8,11.0,-9.2,91,57,35,30.50,29.99,3,1,7,0.00
2014-3-8,40.6,29.7,16.8,30.0,24.1,15.4,95,81,59,29.99,29.87,5,2,13,0.00
2014-3-9,29.3,23.7,18.6,23.0,14.9,10.3,91,70,48,30.04,29.90,7,3,16,0.00
2014-3-10,41.2,32.7,22.8,32.3,23.9,11.7,80,70,58,29.90,29.56,7,2,15,0.00
2014-3-11,50.7,42.3,35.2,34.5,31.5,28.6,86,67,43,29.73,29.55,7,3,16,0.00
2014-3-12,38.4,32.4,14.5,35.4,30.8,12.6,98,94,71,29.72,29.10,7,2,16,0.76
2014-3-13,14.1,9.2,4.0,12.2,4.0,0.3,92,80,62,30.11,29.31,11,7,19,0.00
2014-3-14,43.1,25.6,7.2,28.3,14.5,2.0,82,63,50,30.18,29.81,7,3,16,0.04
2014-3-15,41.3,36.5,23.2,32.6,27.2,11.9,90,70,49,30.00,29.71,10,5,20,0.01
2014-3-16,23.1,16.6,8.6,14.0,6.4,1.2,81,64,47,30.26,30.00,9,5,23,0.00
2014-3-17,31.2,15.5,4.8,6.5,1.5,-1.9,79,56,29,30.23,30.10,3,1,23,0.00
2014-3-18,44.5,25.2,8.1,13.3,7.1,2.0,81,50,23,30.31,30.19,4,1,23,0.00
2014-3-19,40.9,32.1,22.5,36.2,17.7,-0.1,96,60,21,30.29,29.83,6,2,23,0.18
2014-3-20,39.9,35.4,28.1,37.1,30.5,23.7,96,83,66,29.84,29.70,9,5,21,0.01
2014-3-21,32.9,27.0,18.6,25.2,20.8,16.1,93,77,63,30.10,29.83,8,4,22,0.00
2014-3-22,45.3,32.4,17.8,32.9,24.2,15.9,93,73,49,30.09,29.75,10,4,21,0.00
2014-3-23,30.2,22.2,11.3,23.6,13.8,4.5,89,70,55,30.20,30.00,7,4,15,0.00
2014-3-24,23.7,14.9,9.0,8.6,6.1,1.8,88,69,44,30.25,30.15,6,3,15,0.00
2014-3-25,33.1,18.7,3.7,17.9,10.0,1.2,90,71,43,30.19,29.96,5,1,15,0.00
2014-3-26,21.9,17.8,12.8,18.4,9.1,1.0,88,69,42,30.25,29.90,11,6,23,0.00
2014-3-27,40.4,24.7,9.8,21.6,9.8,6.1,87,58,25,30.42,30.19,5,3,15,0.00
2014-3-28,46.5,39.5,32.8,44.3,34.5,19.8,95,83,55,30.19,29.91,8,4,15,0.74
2014-3-29,46.7,38.7,32.4,41.0,36.1,31.4,97,90,76,30.24,29.78,9,4,17,0.27
2014-3-30,38.6,34.6,29.2,37.7,33.9,28.5,98,97,96,29.84,29.66,11,2,17,0.50
2014-3-31,41.2,31.7,26.7,35.3,29.0,25.4,97,90,73,30.18,29.83,7,3,15,0.01
2014-4-1,55.0,39.0,25.0,36.2,30.0,23.8,96,73,46,30.18,29.98,4,1,15,0.00
2014-4-2,55.6,44.7,32.5,36.0,31.3,22.6,82,61,34,30.13,29.98,6,2,15,0.00
2014-4-3,48.1,36.9,26.0,29.5,25.7,22.8,88,66,41,30.18,30.07,4,2,15,0.00
2014-4-4,44.2,37.6,33.3,37.6,31.9,25.9,95,80,67,30.09,29.73,7,2,15,0.18
2014-4-5,40.9,35.4,30.0,39.8,30.4,22.4,96,82,66,30.07,29.71,9,5,19,0.02
2014-4-6,52.7,36.2,24.0,24.4,21.6,16.7,86,60,26,30.24,30.07,9,3,15,0.00
2014-4-7,49.9,38.8,28.9,41.6,24.4,11.2,96,62,22,30.22,29.65,6,2,17,0.10
2014-4-8,53.6,44.9,36.0,48.2,41.3,33.6,95,87,69,29.65,29.34,9,4,16,0.22
2014-4-9,44.7,37.4,28.5,36.0,26.0,11.7,96,67,30,30.03,29.64,10,4,20,0.00
2014-4-10,61.9,44.7,23.3,34.3,27.1,17.1,82,53,33,30.15,29.91,8,4,26,0.00
2014-4-11,55.2,48.8,40.3,46.8,40.8,32.8,97,76,46,30.03,29.87,8,2,15,0.29
2014-4-12,61.7,48.0,36.9,45.1,36.9,31.0,98,71,33,30.23,30.03,6,2,15,0.01
2014-4-13,77.5,62.7,48.1,53.3,45.4,34.1,68,54,34,30.17,29.85,8,4,24,0.00
2014-4-14,73.0,66.1,60.4,55.5,53.2,51.5,77,64,49,29.89,29.68,11,5,18,0.00
2014-4-15,62.4,47.3,22.7,58.4,43.8,21.2,96,88,70,29.90,29.40,10,5,16,1.08
2014-4-16,34.8,25.1,18.4,23.4,16.0,11.7,94,69,45,30.65,29.90,9,4,18,0.01
2014-4-17,50.7,33.6,18.5,25.8,19.7,15.4,90,60,28,30.76,30.59,5,2,15,0.00
2014-4-18,51.2,39.7,26.7,28.8,24.6,17.3,86,58,26,30.59,30.24,3,1,15,0.00
2014-4-19,52.7,42.5,32.8,35.5,30.5,25.3,85,64,41,30.41,30.23,8,3,16,0.00
2014-4-20,64.1,46.1,29.8,29.7,25.7,21.8,76,49,22,30.49,30.27,4,1,15,0.00
2014-4-21,72.7,54.2,34.3,33.1,25.7,19.8,67,37,15,30.27,29.81,4,2,15,0.00
2014-4-22,67.6,55.4,45.7,50.4,40.1,21.1,91,61,27,29.81,29.48,6,2,15,0.02
2014-4-23,45.6,37.0,32.4,42.5,34.3,28.5,97,90,83,29.87,29.52,8,4,15,0.23
2014-4-24,47.7,36.3,28.9,29.0,21.4,17.5,86,57,32,30.09,29.87,9,4,18,0.00
2014-4-25,63.2,39.3,24.4,40.0,24.7,14.1,92,63,16,30.08,29.72,6,2,15,0.12
2014-4-26,52.5,42.7,37.5,43.7,39.0,35.9,96,87,64,29.90,29.68,6,3,15,0.14
2014-4-27,47.3,39.3,34.2,39.3,35.4,32.8,96,86,70,30.19,29.90,7,3,15,0.03
2014-4-28,58.6,45.4,30.0,36.9,33.5,28.3,96,66,39,30.20,30.05,5,2,15,0.00
2014-4-29,44.1,40.5,36.8,39.2,37.0,35.5,96,87,76,30.36,30.11,7,3,15,0.28
2014-4-30,50.9,42.2,35.1,48.6,40.3,33.5,96,93,88,30.37,29.94,8,5,20,0.27
2014-5-1,63.5,54.9,43.8,55.4,50.8,42.0,98,87,67,29.95,29.69,9,2,15,0.14
2014-5-2,56.0,45.9,33.5,43.7,39.2,32.6,98,79,51,29.85,29.71,7,2,15,0.02
2014-5-3,58.4,51.2,42.8,44.1,40.7,36.3,92,68,46,29.85,29.68,6,2,15,0.09
2014-5-4,54.6,44.3,39.5,40.6,35.9,29.5,93,74,42,29.83,29.63,10,6,20,0.01
2014-5-5,56.7,45.2,36.5,38.3,34.8,30.6,93,70,39,29.95,29.83,8,4,15,0.01
2014-5-6,54.7,43.2,31.8,37.2,31.3,28.8,93,66,39,30.14,29.92,7,2,15,0.00
2014-5-7,63.7,47.0,27.7,34.0,28.5,19.2,94,55,19,30.27,30.14,3,1,15,0.00
2014-5-8,68.7,56.0,43.1,55.9,46.3,32.8,87,70,56,30.19,30.04,3,0,15,0.00
2014-5-9,70.8,60.5,51.9,60.7,55.6,50.8,96,84,68,30.15,29.91,5,2,15,0.52
2014-5-10,73.6,63.9,56.4,61.3,55.6,36.5,95,76,48,29.91,29.76,7,3,15,0.09
2014-5-11,68.8,58.2,47.9,42.9,36.9,27.9,71,48,25,30.08,29.87,7,3,15,0.00
2014-5-12,80.4,63.6,43.6,56.1,46.0,34.9,85,56,28,30.13,30.02,5,1,15,0.00
2014-5-13,77.6,64.6,54.6,62.0,51.9,43.6,84,64,52,30.14,30.03,5,2,15,0.00
2014-5-14,81.3,65.2,49.9,64.7,56.0,47.1,97,74,48,30.20,30.10,4,2,15,0.63
2014-5-15,75.6,67.9,62.4,63.6,61.3,58.2,90,80,62,30.16,29.98,7,4,18,0.00
2014-5-16,69.3,61.6,44.2,63.0,57.2,43.3,97,86,75,29.98,29.72,7,4,18,1.79
2014-5-17,48.3,40.2,36.5,43.3,37.2,-99.9,98,93,75,29.99,29.85,5,-14,15,0.07
2014-5-18,57.0,48.5,34.9,41.2,32.5,27.1,81,55,39,30.23,30.15,6,2,15,0.00
2014-5-19,62.7,47.2,29.3,42.3,35.2,27.4,96,67,37,30.25,30.12,6,2,0,0.00
2014-5-20,69.9,54.1,36.2,47.1,39.0,33.1,97,63,28,30.19,30.01,6,2,0,0.00
2014-5-21,72.6,58.3,44.2,54.6,47.5,39.4,94,70,39,30.03,29.85,4,1,0,0.00
2014-5-22,69.9,58.6,52.1,62.3,55.6,50.9,98,90,64,29.85,29.73,4,1,0,0.30
2014-5-23,55.3,52.1,48.6,52.8,50.7,47.8,98,95,90,29.99,29.82,3,1,0,0.04
2014-5-24,56.7,51.7,45.3,55.4,51.0,44.8,98,97,94,30.12,29.95,2,0,0,0.56
2014-5-25,74.1,56.8,39.2,56.8,47.7,38.8,99,76,37,30.14,30.06,5,1,0,0.00
2014-5-26,77.4,65.7,51.0,57.3,51.9,48.6,93,64,42,30.06,29.88,6,2,0,0.00
2014-5-27,79.6,68.3,56.8,64.3,57.3,49.7,95,69,50,29.89,29.72,4,1,0,0.00
2014-5-28,67.4,58.8,46.4,63.3,56.1,45.3,96,91,77,30.14,29.75,3,1,0,0.00
2014-5-29,67.7,55.2,43.0,51.6,46.2,41.3,96,74,49,30.19,30.09,3,1,0,0.00
2014-5-30,70.3,56.6,46.3,56.3,50.4,45.3,97,81,48,30.12,30.02,5,1,0,0.11
2014-5-31,66.6,53.1,39.4,52.7,46.2,38.8,98,80,49,30.31,30.12,3,1,0,0.01
2014-6-1,75.0,58.7,39.9,53.6,46.7,39.1,98,69,36,30.38,30.20,3,1,0,0.00
2014-6-2,82.1,67.5,54.1,63.5,55.1,48.1,90,66,44,30.22,29.96,3,2,0,0.00
2014-6-3,82.4,67.3,58.6,69.6,63.3,56.7,98,88,56,29.98,29.78,5,1,0,0.73
2014-6-4,69.8,61.2,52.2,60.8,53.7,47.8,98,78,49,29.86,29.75,3,1,0,0.00
2014-6-5,69.2,57.6,48.9,56.8,52.4,47.2,98,84,56,29.81,29.67,4,1,0,0.09
2014-6-6,65.5,55.4,48.1,54.4,50.3,47.0,98,84,62,30.00,29.80,5,2,0,0.01
2014-6-7,76.5,60.0,43.3,59.5,51.4,42.8,98,77,43,30.05,29.94,3,1,0,0.00
2014-6-8,81.1,64.5,44.8,60.6,52.4,44.3,98,70,36,29.99,29.83,3,1,0,0.00
2014-6-9,64.0,60.9,58.7,61.3,59.2,56.8,98,94,78,29.96,29.87,2,1,0,0.51
2014-6-10,76.1,63.1,59.5,67.2,59.2,-99.9,98,91,68,30.00,29.92,3,-13,15,0.00
2014-6-11,63.2,58.4,55.0,60.5,56.7,52.8,97,94,80,30.07,29.99,7,1,9,0.31
2014-6-12,67.5,62.6,56.3,63.2,59.9,53.1,98,91,81,30.06,29.91,5,1,16,0.05
2014-6-13,78.0,65.8,61.0,69.1,63.5,60.1,98,93,72,29.91,29.69,3,0,11,1.01
2014-6-14,61.0,54.2,51.2,60.1,51.1,47.3,97,90,79,30.06,29.78,4,2,12,0.00
2014-6-15,71.7,58.6,50.3,59.0,52.9,49.2,96,83,59,30.17,30.05,4,2,11,0.00
2014-6-16,80.9,63.3,44.1,61.9,53.2,43.6,98,74,31,30.18,30.01,3,1,8,0.00
2014-6-17,83.3,72.0,58.0,68.4,62.5,57.1,98,75,47,30.06,29.78,5,1,13,0.00
2014-6-18,74.8,66.3,60.7,67.5,62.3,59.4,98,87,71,30.00,29.77,8,3,16,0.70
2014-6-19,74.6,66.7,47.5,63.0,53.8,39.1,98,67,34,30.06,29.96,4,2,10,0.01
2014-6-20,69.5,56.0,40.8,51.2,46.1,40.0,98,73,40,30.06,29.95,4,1,12,0.00
2014-6-21,72.3,57.7,41.1,52.8,47.2,40.0,97,71,44,30.01,29.91,3,1,7,0.00
2014-6-22,76.6,60.8,43.3,56.4,48.7,42.5,98,69,37,30.03,29.95,2,1,6,0.00
2014-6-23,79.8,64.9,46.2,61.4,55.0,45.3,98,74,42,30.10,30.03,3,1,10,0.00
2014-6-24,77.6,68.7,62.6,67.6,61.6,56.3,83,78,69,30.08,29.92,5,2,13,0.00
2014-6-25,77.3,69.3,64.1,70.7,65.3,61.6,98,87,75,29.93,29.80,4,1,10,2.04
2014-6-26,77.9,67.6,58.8,67.6,63.6,57.6,98,88,62,30.01,29.80,3,1,10,0.00
2014-6-27,78.6,65.3,51.5,64.4,55.7,48.6,98,75,38,30.20,30.00,3,0,7,0.00
2014-6-28,82.5,66.1,48.0,62.1,54.3,47.3,98,71,35,30.28,30.20,2,0,6,0.00
2014-6-29,83.5,68.3,55.9,64.8,59.0,52.6,96,75,44,30.23,30.04,3,1,9,0.00
2014-6-30,81.5,71.2,61.7,72.1,64.7,58.8,96,80,67,30.06,29.88,3,1,13,0.61
2014-7-1,85.0,74.5,64.1,72.5,67.8,62.1,97,81,63,29.91,29.72,5,2,13,0.00
2014-7-2,86.8,74.0,65.3,74.4,69.8,64.3,98,87,61,29.92,29.75,6,1,17,0.35
2014-7-3,86.8,69.9,60.4,72.7,65.1,59.8,98,87,52,29.94,29.83,4,1,11,0.40
2014-7-4,67.3,60.8,54.1,63.2,57.4,51.1,98,89,67,30.06,29.91,4,2,12,0.05
2014-7-5,73.7,61.7,49.7,55.7,51.4,48.6,97,72,45,30.16,30.05,6,2,15,0.00
2014-7-6,77.7,65.8,48.0,59.0,52.8,46.1,94,65,45,30.08,29.88,4,2,12,0.00
2014-7-7,79.0,67.5,64.5,71.0,60.2,51.4,97,78,61,29.88,29.65,5,1,14,0.49
2014-7-8,82.5,72.7,65.7,70.8,66.6,63.8,96,82,65,29.77,29.57,5,2,15,0.28
2014-7-9,79.3,67.3,58.7,64.7,61.3,57.3,97,83,56,29.97,29.66,4,2,15,0.25
2014-7-10,73.5,62.7,52.2,58.5,55.2,50.6,98,79,49,30.18,29.97,3,1,7,0.00
2014-7-11,76.8,61.7,45.1,59.0,51.5,44.3,98,74,41,30.25,30.18,3,1,8,0.00
2014-7-12,83.3,67.4,50.1,68.2,59.9,49.1,98,79,48,30.24,30.06,3,1,9,0.00
2014-7-13,78.5,70.8,66.2,71.6,67.1,63.4,98,88,72,30.06,29.78,5,2,12,0.89
2014-7-14,81.2,70.6,63.0,69.7,65.6,62.3,98,86,54,29.89,29.79,3,0,9,0.00
2014-7-15,75.5,66.6,61.0,69.8,64.5,60.1,98,93,76,29.79,29.71,3,0,10,0.51
2014-7-16,73.3,64.0,52.8,62.7,57.0,51.6,98,80,53,29.92,29.74,3,1,8,0.01
2014-7-17,71.6,58.1,47.7,57.9,53.0,47.2,98,85,56,30.15,29.91,7,1,14,0.00
2014-7-18,74.9,60.0,44.2,58.6,52.0,43.7,98,78,44,30.26,30.14,3,1,8,0.00
2014-7-19,73.5,62.8,52.7,61.6,56.7,51.9,98,82,59,30.26,30.17,2,0,6,0.00
2014-7-20,78.5,66.4,57.6,60.7,56.8,47.4,96,74,39,30.18,30.09,3,0,7,0.00
2014-7-21,80.5,67.5,54.7,66.6,61.2,53.6,97,82,58,30.18,30.11,3,1,10,0.00
2014-7-22,83.2,71.5,58.8,70.1,65.1,58.0,98,82,59,30.15,29.97,4,1,9,0.00
2014-7-23,84.5,72.7,63.7,73.4,67.8,62.8,97,86,64,29.98,29.72,4,2,14,0.34
2014-7-24,70.5,62.4,49.9,62.9,56.3,48.3,98,82,54,29.98,29.81,4,1,10,0.01
2014-7-25,75.1,59.4,44.2,59.7,52.8,43.4,98,81,49,30.07,29.97,3,1,8,0.00
2014-7-26,74.9,63.2,51.8,59.8,56.0,50.9,98,79,56,30.00,29.86,3,1,10,0.00
2014-7-27,80.3,69.3,62.7,68.1,62.2,56.8,96,79,56,29.88,29.60,4,1,17,0.59
2014-7-28,74.0,63.9,54.6,66.8,61.6,53.8,98,93,71,29.72,29.43,5,1,12,0.92
2014-7-29,64.7,57.3,50.9,55.4,53.1,49.8,97,86,65,29.99,29.71,3,1,15,0.00
2014-7-30,71.1,59.5,49.5,57.3,53.1,48.7,98,81,55,30.05,29.99,3,1,8,0.00
2014-7-31,72.8,61.4,52.0,62.6,56.3,50.9,97,84,60,30.14,30.02,5,1,18,0.01
2014-8-1,80.8,66.4,53.4,65.3,59.7,52.5,98,81,54,30.19,30.14,3,1,11,0.00
2014-8-2,78.6,66.6,55.9,66.1,60.4,54.6,96,82,57,30.18,30.06,2,0,6,0.00
2014-8-3,78.3,64.8,53.9,66.2,60.1,53.3,98,86,60,30.11,30.00,3,0,7,0.00
2014-8-4,77.8,66.1,55.8,66.0,61.6,54.4,98,87,63,30.07,30.01,3,1,7,0.00
2014-8-5,80.7,65.4,51.5,68.1,60.0,51.0,99,85,54,30.06,29.92,3,1,8,0.04
2014-8-6,72.4,63.0,51.9,62.6,58.3,50.5,97,85,62,29.94,29.86,3,1,7,0.01
2014-8-7,69.7,56.1,45.8,59.4,51.8,45.3,98,87,56,30.07,29.93,5,1,12,0.02
2014-8-8,73.6,59.7,46.9,60.2,53.9,46.1,98,83,55,30.14,30.06,3,1,9,0.00
2014-8-9,79.6,61.3,46.1,61.4,53.8,45.6,99,80,38,30.18,30.10,3,0,8,0.01
2014-8-10,81.0,63.8,48.4,65.9,56.2,47.8,99,80,46,30.18,30.10,2,0,5,0.00
2014-8-11,82.0,66.2,51.6,64.6,57.1,51.1,99,75,49,30.14,30.05,3,1,10,0.00
2014-8-12,68.8,64.8,59.7,63.5,58.3,52.6,91,80,64,30.06,29.84,5,2,16,0.09
2014-8-13,69.5,63.8,56.5,65.5,61.0,54.8,96,91,79,29.84,29.67,4,1,11,0.26
2014-8-14,65.8,56.6,49.2,55.3,50.4,47.3,96,81,55,29.89,29.77,5,2,13,0.01
2014-8-15,59.0,53.4,49.3,51.5,49.6,47.9,97,87,72,29.96,29.86,5,1,11,0.00
2014-8-16,67.3,59.8,52.0,53.8,51.7,48.6,91,76,54,29.98,29.88,4,1,10,0.11
2014-8-17,69.3,59.5,49.2,60.8,55.4,48.4,97,87,66,29.93,29.84,5,1,11,0.05
2014-8-18,70.2,58.7,47.3,56.7,52.6,46.2,98,82,53,29.93,29.86,4,1,11,0.00
2014-8-19,79.2,59.7,40.4,60.9,51.8,39.8,99,79,45,29.95,29.89,3,0,6,0.00
2014-8-20,81.7,67.2,53.6,67.8,61.6,52.8,98,84,54,29.98,29.92,3,1,11,0.01
2014-8-21,73.8,67.0,63.8,67.9,64.4,62.5,97,92,76,30.00,29.93,3,0,8,0.24
2014-8-22,69.8,63.2,59.1,65.0,61.5,58.2,98,94,82,30.06,29.95,2,0,7,0.30
2014-8-23,70.0,61.4,55.8,61.3,58.6,54.6,97,91,72,30.14,30.03,2,0,6,0.06
2014-8-24,77.1,60.8,49.0,63.5,55.9,48.4,98,86,54,30.20,30.13,2,0,6,0.01
2014-8-25,81.3,63.6,46.8,65.4,56.9,46.3,99,82,51,30.23,30.14,2,0,6,0.00
2014-8-26,81.3,65.4,50.0,64.3,57.1,49.5,99,78,45,30.19,30.04,5,1,14,0.01
2014-8-27,75.4,67.3,58.5,69.9,62.7,54.4,93,85,78,30.05,29.90,3,1,11,0.00
2014-8-28,68.5,58.6,47.9,58.4,53.5,46.6,97,84,60,30.10,29.90,4,2,15,0.00
2014-8-29,64.2,52.6,46.5,56.5,50.1,45.6,98,92,76,30.23,30.10,1,0,2,0.00
2014-8-30,74.4,63.8,52.9,63.3,57.7,50.4,92,81,66,30.24,30.08,4,2,12,0.00
2014-8-31,71.8,68.5,65.8,70.1,66.4,62.5,97,93,88,30.10,29.93,4,1,10,0.41
2014-9-1,81.8,71.8,65.8,70.7,67.2,64.9,98,87,62,30.00,29.88,3,1,10,0.01
2014-9-2,84.0,74.8,63.8,72.5,67.8,62.7,97,80,57,29.89,29.72,4,2,13,0.56
2014-9-3,74.6,64.3,52.2,62.8,57.8,51.1,97,81,51,30.13,29.80,4,2,10,0.00
2014-9-4,80.1,63.6,48.0,65.5,57.3,47.5,99,83,53,30.20,30.10,3,1,10,0.00
2014-9-5,84.8,73.0,62.8,70.9,66.5,60.9,97,82,56,30.14,29.94,4,1,16,0.00
2014-9-6,78.8,68.0,56.7,70.9,63.7,55.6,97,87,68,29.96,29.81,5,2,13,0.05
2014-9-7,70.1,61.1,52.0,57.1,52.8,46.0,98,77,48,30.18,29.95,3,1,9,0.00
2014-9-8,72.6,60.0,45.7,55.5,51.4,45.2,99,76,51,30.33,30.29,3,1,7,0.00
2014-9-9,73.6,58.3,47.0,58.1,51.9,46.4,98,81,47,30.31,30.15,3,1,8,0.00
2014-9-10,75.9,62.2,49.5,61.0,55.5,49.0,98,80,54,30.15,29.92,3,1,10,0.01
2014-9-11,74.7,63.5,52.8,67.4,60.0,50.8,95,88,75,30.00,29.75,5,3,18,0.08
2014-9-12,59.9,49.3,41.0,50.7,44.8,39.9,97,82,68,30.25,30.00,8,2,10,0.01
2014-9-13,54.5,48.8,40.9,53.9,47.6,40.1,98,96,91,30.25,30.09,4,1,10,0.43
2014-9-14,60.9,49.0,36.8,46.2,42.4,35.8,97,80,53,30.31,30.21,3,1,9,0.00
2014-9-15,63.9,50.5,37.3,48.3,43.1,36.5,99,79,45,30.27,30.07,3,0,6,0.00
2014-9-16,58.4,50.8,38.1,54.2,48.7,37.3,98,93,78,30.07,29.99,3,1,8,0.38
2014-9-17,62.9,45.9,33.4,51.1,41.0,32.8,99,85,51,30.09,30.00,4,1,8,0.01
2014-9-18,65.0,48.9,32.9,52.8,44.4,32.4,99,86,54,30.18,30.01,4,1,9,0.01
2014-9-19,63.4,48.9,36.4,46.6,40.9,34.7,95,76,45,30.35,30.18,3,1,9,0.00
2014-9-20,62.4,54.4,47.9,56.8,51.1,44.7,91,89,82,30.30,30.16,5,3,16,0.00
2014-9-21,78.5,69.7,56.1,60.3,57.7,55.0,96,68,47,29.85,29.56,6,2,16,0.13
2014-9-22,56.4,49.5,43.0,55.3,45.8,39.3,96,87,77,30.18,29.60,5,3,18,0.02
2014-9-23,65.4,49.0,37.7,52.8,44.4,36.9,98,86,60,30.47,30.18,3,1,9,0.00
2014-9-24,69.9,53.5,38.7,55.0,47.9,38.2,99,83,57,30.60,30.47,3,1,10,0.01
2014-9-25,62.7,52.6,46.1,53.5,48.9,45.1,98,88,67,30.51,30.29,2,0,6,0.00
2014-9-26,73.5,54.6,39.0,58.7,49.4,38.5,99,85,52,30.32,30.22,3,0,7,0.00
2014-9-27,78.8,57.9,41.6,61.8,51.3,41.1,99,82,47,30.30,30.21,3,0,7,0.01
2014-9-28,78.0,58.9,43.7,63.8,52.1,43.2,99,82,40,30.23,30.05,3,1,8,0.00
2014-9-29,71.7,58.4,49.4,60.5,53.2,48.9,99,85,51,30.05,29.92,1,0,3,0.00
2014-9-30,69.6,58.0,49.9,61.2,55.7,49.4,99,93,67,29.99,29.90,3,0,7,0.31
2014-10-1,59.6,55.9,54.1,58.1,55.0,53.5,99,97,92,30.11,29.99,1,0,7,0.01
2014-10-2,70.3,58.7,52.0,58.1,54.6,51.2,98,87,62,30.17,30.08,3,1,8,0.00
2014-10-3,71.6,58.6,49.2,55.5,51.1,47.8,98,78,50,30.09,29.75,4,1,13,0.00
2014-10-4,57.4,52.9,41.9,56.3,51.1,40.6,97,94,79,29.75,29.51,5,1,11,0.45
2014-10-5,53.4,41.0,29.6,40.7,34.5,28.2,97,79,52,29.99,29.67,5,1,15,0.00
2014-10-6,63.1,49.1,32.2,47.9,39.4,30.3,96,71,48,30.03,29.97,6,2,17,0.00
2014-10-7,64.7,57.9,53.9,52.2,48.1,42.6,87,71,47,30.00,29.80,5,3,19,0.01
2014-10-8,62.1,54.8,47.1,54.2,46.3,33.7,93,74,49,29.91,29.65,7,4,35,0.16
2014-10-9,58.7,48.4,39.2,40.7,37.1,33.8,88,66,46,30.05,29.88,7,3,20,0.00
2014-10-10,56.8,44.1,32.5,39.7,36.3,31.0,96,76,49,30.16,30.04,5,1,12,0.00
2014-10-11,56.9,45.8,33.5,43.5,39.1,31.7,95,78,55,30.21,30.07,3,1,9,0.00
2014-10-12,62.9,41.3,25.5,42.3,32.7,24.6,98,76,35,30.33,30.21,3,0,7,0.00
2014-10-13,58.7,51.5,36.9,56.4,47.6,32.8,92,87,79,30.32,30.20,4,2,14,0.00
2014-10-14,71.3,65.6,58.8,61.5,59.4,56.8,93,81,67,30.21,30.01,6,4,18,0.00
2014-10-15,75.1,67.8,63.9,64.2,62.0,59.9,97,82,64,30.02,29.78,6,3,18,0.42
2014-10-16,70.5,62.9,52.5,65.7,59.0,48.4,97,88,48,29.79,29.57,5,1,19,0.79
2014-10-17,63.8,55.7,48.4,52.2,49.5,47.3,97,81,60,29.68,29.59,6,2,15,0.01
2014-10-18,56.2,50.8,42.3,51.6,47.9,41.2,96,90,78,29.73,29.52,5,2,14,0.30
2014-10-19,42.3,35.8,29.9,41.2,32.3,26.3,96,87,74,30.06,29.72,8,4,20,0.01
2014-10-20,50.0,40.6,26.7,40.2,33.4,24.9,95,77,58,30.09,29.95,4,1,10,0.00
2014-10-21,55.6,49.8,44.2,49.5,46.7,43.1,97,89,74,30.00,29.87,3,1,9,0.10
2014-10-22,46.9,45.1,43.5,46.1,44.5,42.7,98,98,97,30.08,29.94,4,2,12,0.54
2014-10-23,44.9,43.2,40.9,44.4,42.7,40.4,98,98,98,29.95,29.82,4,1,10,1.05
2014-10-24,52.9,43.7,37.1,47.4,41.3,34.3,99,92,74,29.91,29.83,7,3,14,0.05
2014-10-25,59.2,46.1,33.3,48.2,41.2,31.8,98,84,59,29.91,29.57,5,2,15,0.11
2014-10-26,46.3,41.9,40.5,44.6,40.1,37.9,97,93,87,29.83,29.52,8,4,24,0.46
2014-10-27,53.8,43.5,36.3,41.7,39.1,34.1,97,86,57,30.05,29.83,5,2,15,0.07
2014-10-28,70.2,59.9,36.0,54.0,46.7,34.3,94,63,48,30.03,29.83,5,2,13,0.00
2014-10-29,65.4,53.0,43.2,55.7,47.4,36.9,95,82,61,29.90,29.80,6,2,14,0.19
2014-10-30,45.6,40.2,32.5,40.7,36.7,30.9,95,87,77,30.05,29.95,4,2,13,0.03
2014-10-31,48.7,35.8,24.3,37.3,31.3,23.5,98,85,58,30.07,29.95,3,1,9,0.01
2014-11-1,42.3,37.3,32.7,36.3,33.3,31.4,96,86,68,29.98,29.90,4,1,15,0.00
2014-11-2,38.2,31.8,28.5,31.7,26.1,19.1,96,80,49,30.10,29.96,9,3,21,0.04
2014-11-3,52.2,41.8,28.8,35.6,26.3,17.7,88,59,27,30.16,30.05,8,3,22,0.00
2014-11-4,61.1,53.1,44.5,39.4,28.1,19.4,52,39,27,30.14,29.95,5,2,16,0.00
2014-11-5,57.3,48.6,35.0,43.9,32.4,21.7,80,56,26,30.12,29.92,6,3,16,0.00
2014-11-6,45.5,39.8,35.6,38.9,35.9,29.5,97,86,67,30.11,29.59,3,1,8,0.15
2014-11-7,38.0,33.5,28.5,37.2,31.8,25.7,97,94,84,29.94,29.61,6,3,16,0.05
2014-11-8,41.7,34.4,28.1,28.6,25.9,23.9,89,72,54,30.02,29.85,5,2,14,0.03
2014-11-9,43.9,37.5,28.1,33.4,30.1,25.8,93,75,63,30.02,29.86,4,2,12,0.00
2014-11-10,56.4,44.8,34.7,36.0,32.2,28.5,82,63,41,30.16,30.02,5,1,16,0.00
2014-11-11,58.3,51.3,42.3,50.9,42.4,30.8,85,72,59,30.10,29.88,5,3,21,0.00
2014-11-12,54.9,42.6,30.2,50.8,37.9,25.3,95,83,71,30.10,29.83,8,3,17,0.03
2014-11-13,34.2,31.4,26.2,28.3,25.6,22.0,95,79,69,30.12,30.01,3,1,9,0.00
2014-11-14,31.7,26.1,22.0,25.9,21.8,18.3,95,84,63,30.19,30.00,6,3,15,0.00
2014-11-15,30.4,22.8,16.1,21.1,18.4,14.2,94,84,64,30.39,30.19,5,2,12,0.00
2014-11-16,34.3,28.3,17.5,25.9,21.6,15.2,93,77,59,30.39,30.08,5,2,14,0.00
2014-11-17,43.7,36.1,29.8,42.6,34.3,24.2,97,93,73,30.08,29.49,6,2,17,0.44
2014-11-18,32.2,19.5,13.1,29.9,11.3,3.1,95,71,52,30.01,29.55,9,5,25,0.00
2014-11-19,25.5,18.8,10.2,15.3,8.6,3.3,88,65,44,30.25,29.99,7,4,21,0.00
2014-11-20,28.8,24.1,17.4,20.6,16.4,8.9,91,73,55,30.00,29.84,7,4,18,0.00
2014-11-21,23.9,17.7,14.7,18.7,11.5,7.6,89,76,61,30.49,29.99,9,3,22,0.00
2014-11-22,37.9,23.2,13.1,36.3,15.8,9.2,94,75,37,30.49,30.14,4,2,15,0.17
2014-11-23,51.8,45.1,38.0,44.1,38.1,33.8,94,77,59,30.17,29.94,6,2,15,0.12
2014-11-24,63.1,57.5,49.8,56.0,51.9,44.1,95,82,70,29.94,29.44,8,5,23,0.45
2014-11-25,56.4,43.8,32.3,49.5,29.3,25.1,79,57,39,30.16,29.64,8,4,21,0.00
2014-11-26,32.7,28.8,26.8,29.0,26.2,25.3,95,90,80,30.23,29.91,3,0,7,0.00
2014-11-27,28.0,25.1,22.5,25.8,23.2,20.3,96,92,85,30.08,29.92,0,0,0,0.00
2014-11-28,22.6,19.8,11.8,20.5,16.7,8.0,92,88,77,30.28,30.06,2,0,8,0.00
2014-11-29,32.6,21.8,8.3,26.1,15.8,5.7,92,78,62,30.35,30.16,1,0,3,0.00
2014-11-30,47.4,39.8,32.7,42.5,34.7,26.0,87,82,75,30.16,30.01,5,2,16,0.40
2014-12-1,51.6,38.6,24.3,46.7,32.9,17.1,85,80,73,30.51,30.00,8,4,18,0.00
2014-12-2,35.5,26.1,14.4,32.9,21.1,11.7,92,81,66,30.66,30.30,5,2,17,0.00
2014-12-3,43.1,37.9,29.2,41.4,35.3,23.2,97,90,76,30.29,29.91,9,4,23,0.16
2014-12-4,30.5,26.1,16.8,24.3,19.5,14.9,93,76,66,30.56,30.16,5,2,17,0.00
2014-12-5,37.6,27.8,15.8,36.1,24.8,14.1,95,89,76,30.62,30.35,5,1,13,0.10
2014-12-6,38.4,35.1,29.6,36.7,34.1,28.6,98,96,93,30.36,30.15,3,1,11,0.62
2014-12-7,29.6,23.0,13.3,28.5,18.7,9.4,96,84,62,30.71,30.36,3,1,8,0.00
2014-12-8,25.8,19.3,10.8,24.3,12.6,2.1,94,76,51,30.71,30.42,6,2,13,0.00
2014-12-9,32.6,29.8,25.7,32.1,28.9,24.2,98,96,94,30.43,29.79,7,1,13,0.00
2014-12-10,32.5,25.4,21.7,32.0,24.5,20.6,98,96,95,29.79,29.60,0,0,0,0.00
2014-12-11,24.2,22.2,20.8,22.7,20.7,19.1,96,94,92,29.90,29.60,0,0,0,0.00
2014-12-12,23.9,21.9,20.3,22.9,20.7,19.1,96,95,93,30.06,29.89,0,0,0,0.00
2014-12-13,29.4,27.1,23.9,28.9,26.1,22.9,98,96,89,30.06,29.95,0,0,0,0.00
2014-12-14,32.9,30.6,29.1,31.6,29.6,28.3,98,96,94,30.05,29.93,0,0,0,0.00
2014-12-15,32.0,29.6,27.9,30.3,28.4,27.2,98,95,92,30.13,30.04,0,0,0,0.00
2014-12-16,41.0,35.7,26.0,39.8,34.4,25.3,99,95,88,30.10,29.86,5,1,16,0.62
2014-12-17,39.0,35.1,29.1,38.1,34.1,27.8,98,96,93,29.88,29.80,6,2,17,0.08
2014-12-18,29.0,26.7,25.4,27.7,25.4,24.2,97,95,92,30.02,29.86,8,4,19,0.00
2014-12-19,25.8,21.6,19.2,24.8,19.9,17.9,96,93,89,30.25,29.99,7,3,15,0.00
2014-12-20,27.1,20.8,16.4,20.5,18.1,14.7,95,89,75,30.34,30.25,3,0,7,0.00
2014-12-21,27.2,24.0,21.4,24.5,22.3,19.9,96,94,88,30.39,30.32,2,0,6,0.00
2014-12-22,37.8,30.8,23.8,33.9,28.5,22.3,95,91,80,30.38,30.19,3,1,11,0.09
2014-12-23,40.7,37.7,35.2,40.1,36.8,33.5,98,97,93,30.21,30.07,7,3,16,0.14
2014-12-24,57.7,48.0,40.1,55.3,47.2,39.5,98,97,90,30.07,29.40,7,2,22,0.23
2014-12-25,58.8,41.6,34.9,56.2,36.4,29.3,93,82,72,30.08,29.38,10,6,29,0.12
2014-12-26,37.2,33.4,31.5,30.7,28.4,27.1,85,82,75,30.26,30.17,6,1,12,0.00
2014-12-27,47.3,39.1,31.3,38.4,33.4,27.1,86,80,67,30.26,29.97,5,1,13,0.00
2014-12-28,47.2,35.9,26.9,39.7,32.5,22.2,97,88,59,30.07,29.84,7,4,18,0.38
2014-12-29,28.1,24.7,14.5,24.0,20.9,10.8,91,85,79,30.29,30.06,5,2,14,0.00
2014-12-30,20.0,14.2,6.7,14.4,10.1,3.3,93,84,68,30.44,30.28,6,1,15,0.00
2014-12-31,20.5,14.7,10.5,11.5,6.3,2.1,86,70,48,30.36,30.10,7,3,18,0.00
2015-1-1,28.1,21.1,14.8,14.7,9.0,4.9,70,60,49,30.10,29.91,7,4,18,0.00
2015-1-2,27.7,25.7,21.5,22.7,18.4,14.6,93,74,59,30.47,29.98,9,4,24,0.00